Time;durP1;ratioP1;P1;durP2;ratioP2;P2;SDS_P1;SDS_P2;PMS_P1;PMS_P2;Temp;Humidity;BMP_temperature;BMP_pressure;BME280_temperature;BME280_humidity;BME280_pressure;Samples;Min_cycle;Max_cycle;Signal;HPM_P1;HPM_P2
2022/08/09 00:02:40;;;;;;;4.50;2.58;;;19.40;99.90;;;;;;4932943;28;20051;-56
2022/08/09 00:05:19;;;;;;;6.25;2.20;;;19.40;99.90;;;;;;4930396;29;20519;-54
2022/08/09 00:08:06;;;;;;;5.93;2.55;;;19.30;99.90;;;;;;4931040;29;20514;-55
2022/08/09 00:10:37;;;;;;;3.65;2.30;;;19.20;99.90;;;;;;4932041;29;20052;-53
2022/08/09 00:13:08;;;;;;;6.30;3.30;;;19.20;99.90;;;;;;4933280;29;20052;-52
2022/08/09 00:15:43;;;;;;;3.40;2.45;;;19.10;99.90;;;;;;4931800;29;20070;-53
2022/08/09 00:18:29;;;;;;;8.65;2.95;;;18.90;99.90;;;;;;4923145;29;20131;-51
2022/08/09 00:21:03;;;;;;;3.22;2.38;;;18.90;99.90;;;;;;4933031;29;20518;-54
2022/08/09 00:23:30;;;;;;;4.55;2.50;;;18.80;99.90;;;;;;4932960;29;20106;-52
2022/08/09 00:26:16;;;;;;;7.97;2.50;;;18.60;99.90;;;;;;4933059;29;20051;-53
2022/08/09 00:28:43;;;;;;;5.35;2.70;;;18.60;99.90;;;;;;4933186;29;20181;-55
2022/08/09 00:31:22;;;;;;;6.18;2.03;;;18.70;99.90;;;;;;4932567;29;20484;-52
2022/08/09 00:34:09;;;;;;;4.65;2.45;;;18.70;99.90;;;;;;4924255;29;20078;-54
2022/08/09 00:36:36;;;;;;;2.70;2.00;;;18.70;99.90;;;;;;4932626;29;20046;-54
2022/08/09 00:39:05;;;;;;;4.07;2.67;;;18.60;99.90;;;;;;4932846;29;20515;-54
2022/08/09 00:41:42;;;;;;;3.38;2.15;;;18.70;99.90;;;;;;4932385;29;20079;-53
2022/08/09 00:44:29;;;;;;;5.47;2.80;;;18.60;99.90;;;;;;4932117;29;20063;-52
2022/08/09 00:46:57;;;;;;;2.85;2.28;;;18.60;99.90;;;;;;4932518;29;20054;-51
2022/08/09 00:49:33;;;;;;;6.47;2.60;;;18.60;99.90;;;;;;4922681;29;20472;-51
2022/08/09 00:52:03;;;;;;;5.60;2.58;;;18.50;99.90;;;;;;4932485;29;20054;-55
2022/08/09 00:54:32;;;;;;;5.57;2.08;;;18.40;99.90;;;;;;4932409;29;20516;-54
2022/08/09 00:57:03;;;;;;;3.38;2.13;;;18.50;99.90;;;;;;4931006;29;20468;-54
2022/08/09 00:59:37;;;;;;;8.25;2.55;;;18.50;99.90;;;;;;4932265;29;20591;-55
2022/08/09 01:02:14;;;;;;;6.60;2.70;;;18.60;99.90;;;;;;4931296;29;20043;-55
2022/08/09 01:05:04;;;;;;;4.30;2.30;;;18.50;99.90;;;;;;4931071;29;20491;-56
2022/08/09 01:07:58;;;;;;;6.10;2.10;;;18.50;99.90;;;;;;4931693;29;20054;-54
2022/08/09 01:10:38;;;;;;;4.65;2.38;;;18.40;99.90;;;;;;4924370;29;20055;-52
2022/08/09 01:13:39;;;;;;;11.65;2.55;;;18.40;99.90;;;;;;4930750;29;20150;-52
2022/08/09 01:16:21;;;;;;;3.97;2.72;;;18.40;99.90;;;;;;4934989;28;20071;-54
2022/08/09 01:18:50;;;;;;;4.93;2.15;;;18.40;99.90;;;;;;4911492;29;20491;-55
2022/08/09 01:21:51;;;;;;;5.13;2.17;;;18.40;99.90;;;;;;4929553;29;20514;-53
2022/08/09 01:24:31;;;;;;;4.22;1.90;;;18.40;99.90;;;;;;4930406;29;20135;-55
2022/08/09 01:27:06;;;;;;;9.05;2.65;;;18.30;99.90;;;;;;4931120;29;20051;-50
2022/08/09 01:29:43;;;;;;;8.75;2.50;;;18.30;99.90;;;;;;4930643;29;20135;-54
2022/08/09 01:32:24;;;;;;;4.57;2.70;;;18.20;99.90;;;;;;4911902;29;20060;-53
2022/08/09 01:35:23;;;;;;;7.22;3.28;;;18.20;99.90;;;;;;4943172;29;20067;-54
2022/08/09 01:38:08;;;;;;;4.75;2.63;;;18.00;99.90;;;;;;4930659;29;20052;-54
2022/08/09 01:40:44;;;;;;;5.53;2.55;;;17.90;99.90;;;;;;4930694;29;20047;-54
2022/08/09 01:43:28;;;;;;;3.10;1.92;;;17.80;99.90;;;;;;4930125;29;20095;-55
2022/08/09 01:45:57;;;;;;;4.28;2.30;;;17.80;99.90;;;;;;4931668;29;20047;-55
2022/08/09 01:48:23;;;;;;;10.40;2.65;;;17.80;99.90;;;;;;4930354;29;20519;-52
2022/08/09 01:50:57;;;;;;;6.03;3.78;;;17.80;99.90;;;;;;4930610;29;20067;-53
2022/08/09 01:53:25;;;;;;;4.82;2.90;;;17.90;99.90;;;;;;4930474;29;20055;-52
2022/08/09 01:56:08;;;;;;;5.43;2.92;;;17.80;99.90;;;;;;4916856;29;20050;-54
2022/08/09 01:58:35;;;;;;;4.22;2.35;;;17.80;99.90;;;;;;4930372;29;20090;-55
2022/08/09 02:01:02;;;;;;;5.07;2.38;;;17.70;99.90;;;;;;4931294;29;20677;-54
2022/08/09 02:03:30;;;;;;;3.83;2.45;;;17.70;99.90;;;;;;4930574;29;20056;-53
2022/08/09 02:05:56;;;;;;;5.05;2.45;;;17.60;99.90;;;;;;4931051;29;20075;-52
2022/08/09 02:08:36;;;;;;;3.22;2.13;;;17.60;99.90;;;;;;4915949;29;20056;-53
2022/08/09 02:11:25;;;;;;;7.30;2.97;;;17.40;99.90;;;;;;4929960;29;20054;-55
2022/08/09 02:14:09;;;;;;;4.32;2.10;;;17.50;99.90;;;;;;4917196;29;20107;-55
2022/08/09 02:16:41;;;;;;;3.80;2.30;;;17.60;99.90;;;;;;4915030;29;20077;-52
2022/08/09 02:19:28;;;;;;;5.15;2.22;;;17.60;99.90;;;;;;4917961;29;20055;-55
2022/08/09 02:22:12;;;;;;;4.55;2.55;;;17.60;99.90;;;;;;4932385;29;20584;-54
2022/08/09 02:24:39;;;;;;;6.63;3.15;;;17.60;99.90;;;;;;4935151;29;20098;-56
2022/08/09 02:27:07;;;;;;;7.07;2.55;;;17.50;99.90;;;;;;4934823;29;20074;-54
2022/08/09 02:29:40;;;;;;;4.15;2.22;;;17.40;99.90;;;;;;4918450;29;20086;-54
2022/08/09 02:32:08;;;;;;;4.33;2.33;;;17.50;99.90;;;;;;4934692;29;20094;-52
2022/08/09 02:34:34;;;;;;;4.57;2.45;;;17.40;99.90;;;;;;4933872;29;20317;-52
2022/08/09 02:37:20;;;;;;;4.28;2.60;;;17.40;99.90;;;;;;4919722;29;20455;-52
2022/08/09 02:39:56;;;;;;;3.85;2.58;;;17.30;99.90;;;;;;4918950;29;20112;-55
2022/08/09 02:42:33;;;;;;;3.90;2.25;;;17.30;99.90;;;;;;4933062;29;20259;-51
2022/08/09 02:45:25;;;;;;;3.58;2.22;;;17.30;99.90;;;;;;4933785;29;20122;-51
2022/08/09 02:47:52;;;;;;;3.38;2.28;;;17.20;99.90;;;;;;4936430;29;20098;-53
2022/08/09 02:50:28;;;;;;;7.30;2.90;;;17.30;99.90;;;;;;4918779;29;20079;-54
2022/08/09 02:53:00;;;;;;;7.43;2.95;;;17.20;99.90;;;;;;4934113;28;20135;-52
2022/08/09 02:55:30;;;;;;;4.28;2.78;;;17.10;99.90;;;;;;4917861;29;20063;-55
2022/08/09 02:58:17;;;;;;;4.63;2.90;;;17.00;99.90;;;;;;4932965;29;20043;-52
2022/08/09 03:01:03;;;;;;;8.82;2.70;;;17.00;99.90;;;;;;4919913;29;20055;-52
2022/08/09 03:03:34;;;;;;;4.95;2.90;;;17.00;99.90;;;;;;4934096;29;20047;-53
2022/08/09 03:06:22;;;;;;;3.80;2.58;;;17.00;99.90;;;;;;4933768;29;20059;-53
2022/08/09 03:08:52;;;;;;;3.33;2.50;;;17.00;99.90;;;;;;4932968;29;20055;-53
2022/08/09 03:11:20;;;;;;;3.75;2.47;;;17.00;99.90;;;;;;4934020;29;20075;-55
2022/08/09 03:14:08;;;;;;;5.78;2.97;;;17.10;99.90;;;;;;4931613;29;20054;-54
2022/08/09 03:16:35;;;;;;;5.55;2.70;;;17.00;99.90;;;;;;4933750;29;20322;-53
2022/08/09 03:19:10;;;;;;;8.20;2.85;;;17.00;99.90;;;;;;4933614;29;20051;-55
2022/08/09 03:21:57;;;;;;;7.43;2.67;;;17.10;99.90;;;;;;4932515;29;20050;-56
2022/08/09 03:24:24;;;;;;;4.63;3.03;;;17.00;99.90;;;;;;4932610;29;20483;-52
2022/08/09 03:27:09;;;;;;;4.32;2.75;;;17.00;99.90;;;;;;4932603;29;20059;-54
2022/08/09 03:29:37;;;;;;;7.68;3.03;;;17.00;99.90;;;;;;4932301;29;20111;-55
2022/08/09 03:32:24;;;;;;;6.50;3.00;;;17.00;99.90;;;;;;4918789;29;20130;-52
2022/08/09 03:34:51;;;;;;;4.60;3.00;;;17.00;99.90;;;;;;4932347;29;20055;-55
2022/08/09 03:37:21;;;;;;;7.03;2.60;;;16.90;99.90;;;;;;4932302;29;20043;-54
2022/08/09 03:40:09;;;;;;;6.50;4.15;;;16.80;99.90;;;;;;4921982;29;20047;-54
2022/08/09 03:42:39;;;;;;;6.57;2.83;;;16.80;99.90;;;;;;4932807;29;20055;-52
2022/08/09 03:45:09;;;;;;;4.90;2.33;;;16.80;99.90;;;;;;4933262;29;20074;-54
2022/08/09 03:47:36;;;;;;;6.68;2.72;;;16.70;99.90;;;;;;4933171;29;20083;-54
2022/08/09 03:50:11;;;;;;;11.32;5.70;;;16.70;99.90;;;;;;4933195;29;20492;-55
2022/08/09 03:52:45;;;;;;;8.25;3.08;;;16.70;99.90;;;;;;4917002;29;20162;-54
2022/08/09 03:55:12;;;;;;;9.57;2.78;;;16.70;99.90;;;;;;4916581;29;20048;-55
2022/08/09 03:57:40;;;;;;;3.20;2.28;;;16.80;99.90;;;;;;4933112;29;20051;-52
2022/08/09 04:00:27;;;;;;;13.85;2.80;;;16.70;99.90;;;;;;4918874;29;20047;-54
2022/08/09 04:02:53;;;;;;;4.55;3.08;;;16.60;99.90;;;;;;4929526;29;20059;-54
2022/08/09 04:05:23;;;;;;;3.97;2.65;;;16.70;99.90;;;;;;4915874;29;20423;-54
2022/08/09 04:07:54;;;;;;;5.28;2.78;;;16.70;99.90;;;;;;4932285;29;20070;-54
2022/08/09 04:10:24;;;;;;;4.80;3.00;;;16.60;99.90;;;;;;4932717;29;20055;-54
2022/08/09 04:12:56;;;;;;;7.05;3.05;;;16.60;99.90;;;;;;4932739;29;20503;-55
2022/08/09 04:15:27;;;;;;;3.90;2.75;;;16.60;99.90;;;;;;4931245;29;20051;-55
2022/08/09 04:18:13;;;;;;;4.80;3.08;;;16.70;99.90;;;;;;4932917;29;20050;-55
2022/08/09 04:20:48;;;;;;;4.80;2.88;;;16.70;99.90;;;;;;4932240;29;20051;-53
2022/08/09 04:23:16;;;;;;;4.75;2.90;;;16.70;99.90;;;;;;4932959;29;20460;-53
2022/08/09 04:25:50;;;;;;;4.20;2.83;;;16.60;99.90;;;;;;4932219;29;20055;-55
2022/08/09 04:28:20;;;;;;;4.95;2.85;;;16.50;99.90;;;;;;4932500;29;20062;-55
2022/08/09 04:31:03;;;;;;;8.70;2.95;;;16.40;99.90;;;;;;4932343;29;20086;-54
2022/08/09 04:33:36;;;;;;;4.85;2.75;;;16.40;99.90;;;;;;4932629;29;20110;-55
2022/08/09 04:36:23;;;;;;;6.22;3.30;;;16.40;99.90;;;;;;4932307;29;20052;-55
2022/08/09 04:38:51;;;;;;;5.25;2.85;;;16.50;99.90;;;;;;4932270;29;20115;-54
2022/08/09 04:41:18;;;;;;;8.10;2.92;;;16.50;99.90;;;;;;4932183;29;20135;-53
2022/08/09 04:43:52;;;;;;;6.38;3.05;;;16.50;99.90;;;;;;4931391;29;20236;-52
2022/08/09 04:46:35;;;;;;;4.50;2.92;;;16.40;99.90;;;;;;4931967;29;20048;-52
2022/08/09 04:49:22;;;;;;;5.97;3.28;;;16.40;99.90;;;;;;4931239;29;20052;-53
2022/08/09 04:52:09;;;;;;;5.38;2.83;;;16.40;99.90;;;;;;4932133;29;20069;-51
2022/08/09 04:54:36;;;;;;;9.18;3.47;;;16.40;99.90;;;;;;4932220;29;20058;-54
2022/08/09 04:57:03;;;;;;;7.57;3.40;;;16.30;99.90;;;;;;4931865;28;20060;-53
2022/08/09 04:59:35;;;;;;;9.30;3.95;;;16.30;99.90;;;;;;4932358;29;20456;-56
2022/08/09 05:02:01;;;;;;;6.35;3.00;;;16.30;99.90;;;;;;4931896;29;20408;-55
2022/08/09 05:04:35;;;;;;;2.90;2.45;;;16.30;99.90;;;;;;5065822;28;20383;-54
2022/08/09 05:07:03;;;;;;;7.03;3.42;;;16.40;99.90;;;;;;5065246;28;20614;-52
2022/08/09 05:09:30;;;;;;;8.43;3.38;;;16.40;99.90;;;;;;5065645;28;20434;-52
2022/08/09 05:12:10;;;;;;;12.75;3.63;;;16.40;99.90;;;;;;5065150;28;20076;-54
2022/08/09 05:14:38;;;;;;;6.07;3.33;;;16.40;99.90;;;;;;5065659;28;20094;-54
2022/08/09 05:17:07;;;;;;;9.82;3.65;;;16.40;99.90;;;;;;5065158;28;20097;-52
2022/08/09 05:19:53;;;;;;;6.85;3.53;;;16.40;99.90;;;;;;5045594;28;20045;-55
2022/08/09 05:22:22;;;;;;;4.13;3.30;;;16.50;99.90;;;;;;5064915;28;20041;-55
2022/08/09 05:25:09;;;;;;;8.45;4.53;;;16.60;99.90;;;;;;5045499;28;20049;-54
2022/08/09 05:27:36;;;;;;;8.50;3.88;;;16.60;99.90;;;;;;5061380;28;20076;-50
2022/08/09 05:30:13;;;;;;;11.35;4.25;;;16.70;99.90;;;;;;5045381;28;20471;-52
2022/08/09 05:32:41;;;;;;;8.73;5.07;;;16.70;99.90;;;;;;5063561;28;20053;-55
2022/08/09 05:35:10;;;;;;;5.75;3.40;;;16.70;99.90;;;;;;5065370;28;20102;-51
2022/08/09 05:37:37;;;;;;;9.77;3.63;;;16.80;99.90;;;;;;5064963;28;20048;-54
2022/08/09 05:40:15;;;;;;;5.57;3.47;;;16.80;99.90;;;;;;5065003;28;20041;-53
2022/08/09 05:46:17;;;;;;;9.73;3.70;;;16.90;99.90;;;;;;2021118;22;22864;-57
2022/08/09 05:48:44;;;;;;;4.43;3.17;;;16.90;99.90;;;;;;5073492;28;20215;-52
2022/08/09 05:51:24;;;;;;;6.00;3.65;;;16.90;99.90;;;;;;5041969;28;20174;-54
2022/08/09 05:54:11;;;;;;;7.05;3.90;;;17.00;99.90;;;;;;5055668;28;20071;-55
2022/08/09 05:56:43;;;;;;;8.02;3.83;;;17.00;99.90;;;;;;5027515;28;20115;-54
2022/08/09 05:59:21;;;;;;;8.30;4.10;;;17.10;99.90;;;;;;5052803;28;20463;-54
2022/08/09 06:01:48;;;;;;;11.18;4.10;;;17.20;99.90;;;;;;5063995;28;20135;-55
2022/08/09 06:04:15;;;;;;;9.63;4.05;;;17.30;99.90;;;;;;5050637;28;20051;-54
2022/08/09 06:06:49;;;;;;;7.72;5.63;;;17.40;99.90;;;;;;5064377;28;20045;-55
2022/08/09 06:09:18;;;;;;;13.73;5.38;;;17.60;99.90;;;;;;5033414;28;20334;-55
2022/08/09 06:12:05;;;;;;;17.25;6.50;;;17.70;99.90;;;;;;5063887;28;20075;-54
2022/08/09 06:14:33;;;;;;;15.15;6.95;;;17.90;99.90;;;;;;5027471;28;20049;-54
2022/08/09 06:17:00;;;;;;;18.85;7.88;;;17.90;99.90;;;;;;5050924;28;20139;-55
2022/08/09 06:19:35;;;;;;;15.52;9.80;;;18.00;99.90;;;;;;5037159;28;20056;-53
2022/08/09 06:22:02;;;;;;;18.30;9.93;;;18.00;99.90;;;;;;4693239;28;9999857;-54
2022/08/09 06:24:29;;;;;;;17.95;10.90;;;18.10;99.90;;;;;;5039051;28;20143;-55
2022/08/09 06:26:56;;;;;;;17.67;10.13;;;18.20;99.90;;;;;;5010480;28;20059;-54
2022/08/09 06:29:23;;;;;;;13.52;9.40;;;18.20;99.90;;;;;;5036618;28;20499;-55
2022/08/09 06:31:52;;;;;;;20.27;10.48;;;18.30;99.90;;;;;;5029317;28;20103;-55
2022/08/09 06:34:35;;;;;;;25.90;9.77;;;18.40;99.90;;;;;;5036340;28;20049;-53
2022/08/09 06:37:02;;;;;;;16.35;10.32;;;18.50;99.90;;;;;;5029865;28;20053;-52
2022/08/09 06:39:32;;;;;;;10.98;8.65;;;18.60;99.90;;;;;;5035111;28;20080;-54
2022/08/09 06:42:19;;;;;;;18.77;9.40;;;18.60;99.90;;;;;;5038873;28;20052;-52
2022/08/09 06:44:54;;;;;;;17.60;11.40;;;18.70;99.90;;;;;;5038883;28;20064;-55
2022/08/09 06:47:22;;;;;;;14.93;8.85;;;18.70;99.90;;;;;;5028664;28;20144;-54
2022/08/09 06:49:52;;;;;;;17.17;10.35;;;18.80;99.90;;;;;;5034069;28;20519;-59
2022/08/09 06:52:44;;;;;;;18.23;8.77;;;18.90;99.90;;;;;;5028721;28;20379;-55
2022/08/09 06:55:13;;;;;;;14.02;9.80;;;18.90;99.90;;;;;;5030718;28;20500;-53
2022/08/09 06:57:40;;;;;;;12.93;9.20;;;18.90;99.90;;;;;;5025224;28;20076;-54
2022/08/09 07:00:28;;;;;;;17.45;10.30;;;19.00;99.90;;;;;;5035308;28;20049;-54
2022/08/09 07:03:15;;;;;;;15.07;9.57;;;19.10;99.90;;;;;;5025290;28;20123;-56
2022/08/09 07:05:41;;;;;;;14.02;8.77;;;19.20;99.90;;;;;;5035358;28;20111;-55
2022/08/09 07:08:29;;;;;;;17.42;10.15;;;19.20;99.90;;;;;;5026645;28;20049;-55
2022/08/09 07:10:56;;;;;;;21.25;11.52;;;19.30;99.90;;;;;;5036895;28;20045;-52
2022/08/09 07:13:23;;;;;;;16.88;11.00;;;19.40;99.90;;;;;;5027156;28;20103;-53
2022/08/09 07:15:55;;;;;;;15.77;10.55;;;19.50;99.90;;;;;;5034825;28;20444;-54
2022/08/09 07:18:42;;;;;;;16.60;10.05;;;19.40;99.90;;;;;;5026234;28;20049;-54
2022/08/09 07:21:09;;;;;;;12.88;9.43;;;19.40;99.90;;;;;;5035523;28;20048;-54
2022/08/09 07:23:36;;;;;;;17.17;10.70;;;19.50;99.90;;;;;;5011102;28;20064;-55
2022/08/09 07:26:22;;;;;;;25.23;12.57;;;19.50;99.90;;;;;;5033787;28;20072;-55
2022/08/09 07:28:49;;;;;;;17.15;11.25;;;19.50;99.90;;;;;;5044511;28;20053;-52
2022/08/09 07:31:35;;;;;;;22.23;11.02;;;19.50;99.90;;;;;;5036810;28;20045;-50
2022/08/09 07:34:11;;;;;;;24.15;12.18;;;19.50;99.90;;;;;;5048284;28;20056;-55
2022/08/09 07:36:47;;;;;;;17.35;9.90;;;19.60;99.90;;;;;;5037696;28;20430;-51
2022/08/09 07:39:14;;;;;;;23.77;12.52;;;19.70;99.90;;;;;;5029610;28;20096;-51
2022/08/09 07:42:01;;;;;;;21.95;11.48;;;19.70;99.90;;;;;;5036166;28;20045;-53
2022/08/09 07:44:28;;;;;;;18.45;11.02;;;19.80;99.90;;;;;;5047488;28;20563;-52
2022/08/09 07:47:14;;;;;;;22.45;9.73;;;19.70;99.90;;;;;;5035375;28;20052;-55
2022/08/09 07:49:42;;;;;;;19.45;10.90;;;19.70;99.90;;;;;;5038531;28;20698;-54
2022/08/09 07:52:29;;;;;;;17.08;10.65;;;19.70;99.90;;;;;;5036615;28;20515;-55
2022/08/09 07:54:56;;;;;;;22.58;12.02;;;19.70;99.90;;;;;;5027741;28;20057;-54
2022/08/09 07:57:25;;;;;;;20.00;10.90;;;19.80;99.90;;;;;;5018057;28;20712;-54
2022/08/09 08:00:02;;;;;;;20.00;11.00;;;19.90;99.90;;;;;;5027902;28;20061;-56
2022/08/09 08:02:29;;;;;;;17.15;10.48;;;20.00;99.90;;;;;;5036227;28;20053;-56
2022/08/09 08:04:56;;;;;;;14.48;10.13;;;20.10;99.90;;;;;;5028788;28;20058;-55
2022/08/09 08:07:24;;;;;;;12.93;8.20;;;20.20;99.90;;;;;;5035210;28;20072;-54
2022/08/09 08:10:11;;;;;;;15.80;9.90;;;20.30;99.90;;;;;;5029465;28;20063;-54
2022/08/09 08:12:39;;;;;;;17.20;8.38;;;20.40;99.90;;;;;;5039379;28;20072;-53
2022/08/09 08:15:10;;;;;;;17.83;6.88;;;20.40;99.90;;;;;;5030525;28;20041;-53
2022/08/09 08:17:40;;;;;;;10.95;7.10;;;20.40;99.90;;;;;;5032140;28;20053;-55
2022/08/09 08:20:22;;;;;;;11.32;6.55;;;20.30;99.90;;;;;;5029470;28;20053;-51
2022/08/09 08:22:59;;;;;;;18.70;6.65;;;20.30;99.90;;;;;;5036811;28;20052;-55
2022/08/09 08:25:32;;;;;;;21.50;7.07;;;20.30;99.90;;;;;;5035831;28;20084;-53
2022/08/09 08:28:10;;;;;;;14.77;6.15;;;20.50;99.90;;;;;;5031956;28;20584;-55
2022/08/09 08:30:40;;;;;;;16.80;5.45;;;20.70;99.90;;;;;;5041960;28;20103;-56
2022/08/09 08:33:08;;;;;;;21.90;6.18;;;20.80;99.90;;;;;;5035751;28;20041;-53
2022/08/09 08:35:38;;;;;;;18.48;5.30;;;20.80;99.90;;;;;;5044090;28;20118;-55
2022/08/09 08:38:24;;;;;;;11.35;4.28;;;21.00;99.90;;;;;;5031601;28;20092;-54
2022/08/09 08:40:54;;;;;;;8.55;4.80;;;21.00;99.90;;;;;;5029611;28;20053;-53
2022/08/09 08:43:22;;;;;;;8.48;4.30;;;21.00;99.90;;;;;;5030169;28;20341;-50
2022/08/09 08:45:52;;;;;;;14.55;4.85;;;21.10;99.90;;;;;;5031719;28;20049;-55
2022/08/09 08:48:40;;;;;;;16.02;5.22;;;21.20;99.90;;;;;;5030764;28;20049;-56
2022/08/09 08:51:17;;;;;;;8.35;3.72;;;21.20;99.90;;;;;;5029099;28;20065;-54
2022/08/09 08:53:44;;;;;;;9.65;3.13;;;21.30;99.90;;;;;;5029206;28;20052;-55
2022/08/09 08:56:33;;;;;;;5.65;3.40;;;21.40;99.90;;;;;;5020398;28;20174;-55
2022/08/09 08:59:03;;;;;;;7.10;3.92;;;21.40;99.90;;;;;;5019687;28;20095;-56
2022/08/09 09:01:46;;;;;;;9.93;3.78;;;21.40;99.90;;;;;;4997195;28;20127;-53
2022/08/09 09:04:19;;;;;;;10.48;3.83;;;21.40;99.90;;;;;;5011876;28;20053;-56
2022/08/09 09:06:55;;;;;;;5.65;3.53;;;21.50;99.90;;;;;;5022549;28;20041;-56
2022/08/09 09:09:21;;;;;;;10.23;3.72;;;21.50;99.90;;;;;;5019080;28;20045;-52
2022/08/09 09:12:08;;;;;;;8.63;3.78;;;21.50;99.90;;;;;;4997977;28;20046;-57
2022/08/09 09:14:43;;;;;;;4.43;2.97;;;21.50;99.90;;;;;;5015321;28;20529;-56
2022/08/09 09:17:10;;;;;;;9.65;2.53;;;21.70;99.90;;;;;;5010421;28;20504;-53
2022/08/09 09:19:42;;;;;;;5.05;1.80;;;21.70;99.90;;;;;;5030361;28;20048;-52
2022/08/09 09:22:13;;;;;;;5.65;2.60;;;21.70;99.90;;;;;;5012375;28;20399;-56
2022/08/09 09:24:43;;;;;;;15.10;2.60;;;21.80;99.90;;;;;;5028886;28;20068;-52
2022/08/09 09:27:13;;;;;;;3.28;1.70;;;21.80;99.90;;;;;;5031697;28;20081;-53
2022/08/09 09:30:09;;;;;;;7.82;2.70;;;21.80;99.60;;;;;;5014404;28;20052;-54
2022/08/09 09:33:02;;;;;;;6.60;2.63;;;21.90;98.70;;;;;;5041305;28;20064;-52
2022/08/09 09:36:00;;;;;;;7.90;2.25;;;22.00;98.90;;;;;;5038985;28;20585;-57
2022/08/09 09:38:51;;;;;;;6.60;3.00;;;22.20;98.10;;;;;;5024051;28;20049;-55
2022/08/09 09:41:27;;;;;;;4.22;1.85;;;22.40;98.20;;;;;;5035689;28;20135;-52
2022/08/09 09:44:19;;;;;;;4.32;1.92;;;22.50;98.00;;;;;;5033525;28;20063;-51
2022/08/09 09:47:03;;;;;;;11.98;3.10;;;22.60;97.50;;;;;;5021153;28;20057;-54
2022/08/09 09:49:30;;;;;;;6.53;3.40;;;22.80;97.30;;;;;;5024745;28;20076;-50
2022/08/09 09:52:17;;;;;;;3.30;1.92;;;22.80;96.00;;;;;;5038427;28;20053;-53
2022/08/09 09:55:07;;;;;;;9.88;2.47;;;22.90;95.90;;;;;;5028668;28;20388;-55
2022/08/09 09:58:02;;;;;;;7.18;2.28;;;23.30;94.30;;;;;;5037139;28;20083;-53
2022/08/09 10:00:47;;;;;;;11.60;2.78;;;23.80;94.00;;;;;;5042465;28;20118;-51
2022/08/09 10:03:40;;;;;;;3.47;2.03;;;24.20;93.90;;;;;;5039167;28;20060;-50
2022/08/09 10:06:08;;;;;;;8.93;3.50;;;24.70;91.70;;;;;;5024458;28;20102;-54
2022/08/09 10:08:38;;;;;;;3.80;1.70;;;25.00;91.90;;;;;;5038026;28;20139;-58
2022/08/09 10:11:28;;;;;;;8.30;2.22;;;25.10;91.10;;;;;;5030310;28;20054;-54
2022/08/09 10:14:25;;;;;;;8.55;1.73;;;25.40;90.70;;;;;;5043791;28;20049;-53
2022/08/09 10:16:59;;;;;;;8.57;1.98;;;25.60;83.90;;;;;;5035905;28;20053;-53
2022/08/09 10:19:46;;;;;;;5.07;1.42;;;25.70;82.80;;;;;;5011736;28;20114;-54
2022/08/09 10:22:31;;;;;;;5.80;1.40;;;25.90;83.90;;;;;;5018914;28;20053;-55
2022/08/09 10:25:07;;;;;;;5.82;1.75;;;26.20;75.70;;;;;;5020440;28;20049;-56
2022/08/09 10:27:43;;;;;;;5.43;1.67;;;26.30;79.10;;;;;;5020218;28;20040;-56
2022/08/09 10:30:25;;;;;;;8.45;1.90;;;26.50;76.20;;;;;;5040833;28;20063;-55
2022/08/09 10:33:12;;;;;;;5.32;1.70;;;26.50;76.20;;;;;;5036955;28;20518;-61
2022/08/09 10:36:06;;;;;;;6.13;1.63;;;26.70;74.10;;;;;;4987730;28;20408;-57
2022/08/09 10:38:37;;;;;;;2.92;1.30;;;26.70;72.30;;;;;;5034764;28;20922;-54
2022/08/09 10:41:23;;;;;;;5.20;1.38;;;26.80;73.80;;;;;;5043972;28;20049;-55
2022/08/09 10:43:50;;;;;;;6.18;1.88;;;27.00;70.20;;;;;;5031390;28;20051;-54
2022/08/09 10:46:58;;;;;;;3.70;1.33;;;26.90;71.20;;;;;;5028616;28;20061;-58
2022/08/09 10:49:46;;;;;;;11.48;2.00;;;26.70;66.60;;;;;;5018552;28;20057;-54
2022/08/09 10:52:37;;;;;;;10.07;1.88;;;26.40;70.40;;;;;;5024756;28;20042;-55
2022/08/09 10:55:20;;;;;;;9.75;1.75;;;26.20;67.60;;;;;;5017559;28;20065;-55
2022/08/09 10:57:48;;;;;;;2.30;1.38;;;25.90;68.50;;;;;;5013520;28;20103;-52
2022/08/09 11:00:30;;;;;;;5.40;1.67;;;25.70;70.70;;;;;;5016161;28;20119;-55
2022/08/09 11:02:57;;;;;;;11.35;1.70;;;25.70;68.00;;;;;;5030618;28;20053;-55
2022/08/09 11:06:14;;;;;;;15.63;2.10;;;25.50;70.30;;;;;;5016893;28;20052;-56
2022/08/09 11:08:42;;;;;;;9.82;2.17;;;25.50;66.50;;;;;;5036118;28;20049;-53
2022/08/09 11:11:17;;;;;;;11.98;1.95;;;25.40;69.60;;;;;;5027753;28;20045;-57
2022/08/09 11:13:44;;;;;;;9.48;2.00;;;25.40;69.30;;;;;;5041832;28;20045;-56
2022/08/09 11:16:36;;;;;;;8.90;2.03;;;25.40;69.20;;;;;;5028791;28;20041;-54
2022/08/09 11:19:05;;;;;;;19.95;2.85;;;25.40;67.30;;;;;;5018681;28;20045;-55
2022/08/09 11:21:57;;;;;;;9.02;1.80;;;25.30;69.40;;;;;;5038369;28;20048;-56
2022/08/09 11:24:54;;;;;;;9.88;1.90;;;25.20;67.90;;;;;;5040428;28;20056;-56
2022/08/09 11:27:35;;;;;;;5.32;1.60;;;25.30;68.60;;;;;;5027197;28;20172;-55
2022/08/09 11:30:22;;;;;;;8.52;2.35;;;25.40;68.70;;;;;;5034928;28;20045;-55
2022/08/09 11:33:02;;;;;;;10.75;2.35;;;25.40;69.10;;;;;;5044488;28;20084;-56
2022/08/09 11:35:36;;;;;;;8.15;1.60;;;25.50;68.80;;;;;;5033712;28;20135;-54
2022/08/09 11:38:28;;;;;;;1.30;0.90;;;25.50;69.30;;;;;;5012040;28;20041;-56
2022/08/09 11:41:10;;;;;;;9.00;2.95;;;25.50;67.80;;;;;;5036017;28;20045;-55
2022/08/09 11:43:45;;;;;;;5.60;1.50;;;25.50;67.70;;;;;;5010771;28;20045;-55
2022/08/09 11:46:12;;;;;;;8.32;1.67;;;25.50;68.00;;;;;;5036485;28;20140;-54
2022/08/09 11:48:59;;;;;;;6.20;1.73;;;25.60;68.90;;;;;;5007828;28;20053;-56
2022/08/09 11:51:26;;;;;;;8.32;1.73;;;25.60;68.00;;;;;;5014358;28;20444;-55
2022/08/09 11:54:17;;;;;;;8.73;1.95;;;25.50;67.50;;;;;;5023810;28;20049;-56
2022/08/09 11:57:54;;;;;;;6.50;1.50;;;25.60;66.70;;;;;;5017207;28;20432;-57
2022/08/09 12:00:32;;;;;;;7.43;2.28;;;25.60;65.30;;;;;;4985413;28;20054;-58
2022/08/09 12:03:00;;;;;;;6.45;1.58;;;25.70;66.80;;;;;;5023738;28;20050;-53
2022/08/09 12:05:47;;;;;;;8.13;1.90;;;25.80;67.20;;;;;;5020364;28;20208;-57
2022/08/09 12:08:15;;;;;;;5.57;1.33;;;25.90;67.40;;;;;;5006472;28;20159;-54
2022/08/09 12:10:50;;;;;;;9.70;2.45;;;25.90;67.00;;;;;;5014934;28;20061;-56
2022/08/09 12:13:35;;;;;;;5.05;2.40;;;26.00;67.40;;;;;;5005886;28;20083;-55
2022/08/09 12:16:28;;;;;;;6.80;1.65;;;26.10;65.70;;;;;;5017311;28;20055;-57
2022/08/09 12:19:04;;;;;;;5.82;2.80;;;26.10;66.70;;;;;;5005954;28;20579;-57
2022/08/09 12:21:37;;;;;;;6.03;1.65;;;26.10;67.30;;;;;;5004697;28;20111;-56
2022/08/09 12:24:19;;;;;;;4.57;2.00;;;26.20;66.60;;;;;;5005071;28;20050;-57
2022/08/09 12:26:49;;;;;;;20.00;3.15;;;26.10;66.70;;;;;;5017052;28;20412;-55
2022/08/09 12:29:36;;;;;;;10.38;1.75;;;26.20;67.30;;;;;;5004166;28;20147;-54
2022/08/09 12:32:24;;;;;;;9.77;1.45;;;26.20;67.50;;;;;;5013241;28;20095;-57
2022/08/09 12:34:56;;;;;;;9.27;2.08;;;26.30;66.10;;;;;;5023758;28;20079;-55
2022/08/09 12:37:33;;;;;;;7.03;2.25;;;26.30;66.60;;;;;;5017303;28;20140;-57
2022/08/09 12:40:17;;;;;;;13.05;2.22;;;26.40;66.80;;;;;;5005556;28;20049;-56
2022/08/09 12:42:45;;;;;;;10.73;1.80;;;26.50;67.10;;;;;;5013511;28;20073;-53
2022/08/09 12:45:15;;;;;;;5.43;1.63;;;26.60;66.80;;;;;;5023025;28;20057;-55
2022/08/09 12:48:03;;;;;;;7.30;2.05;;;26.70;66.60;;;;;;5025924;28;20560;-54
2022/08/09 12:50:30;;;;;;;13.48;3.25;;;26.80;66.10;;;;;;5011839;28;20507;-52
2022/08/09 12:52:57;;;;;;;7.13;2.15;;;26.80;66.10;;;;;;4986280;28;20049;-52
2022/08/09 12:55:44;;;;;;;9.15;1.60;;;26.80;66.10;;;;;;5033675;28;20053;-56
2022/08/09 12:58:34;;;;;;;7.32;2.15;;;26.90;65.60;;;;;;5035818;28;20041;-57
2022/08/09 13:01:19;;;;;;;3.67;1.80;;;26.80;65.20;;;;;;5032915;28;20828;-55
2022/08/09 13:04:07;;;;;;;9.02;1.80;;;26.80;64.10;;;;;;5034462;28;20449;-57
2022/08/09 13:06:53;;;;;;;4.97;1.73;;;26.80;63.20;;;;;;5028275;28;20142;-54
2022/08/09 13:09:20;;;;;;;7.80;2.28;;;26.80;65.00;;;;;;5034148;28;20141;-55
2022/08/09 13:11:51;;;;;;;13.02;3.05;;;26.80;64.50;;;;;;5026319;28;20052;-53
2022/08/09 13:14:28;;;;;;;8.38;1.23;;;26.80;64.50;;;;;;5019355;28;20095;-55
2022/08/09 13:17:15;;;;;;;5.38;1.52;;;26.70;64.50;;;;;;5040000;28;20053;-54
2022/08/09 13:20:05;;;;;;;8.63;1.85;;;26.80;63.60;;;;;;5031409;28;20049;-53
2022/08/09 13:22:50;;;;;;;7.95;1.77;;;26.80;64.40;;;;;;5030320;28;20048;-56
2022/08/09 13:25:48;;;;;;;8.20;1.85;;;26.80;63.00;;;;;;5029940;28;20058;-53
2022/08/09 13:28:21;;;;;;;9.48;1.80;;;26.90;64.10;;;;;;5038421;28;20475;-54
2022/08/09 13:31:10;;;;;;;7.95;1.52;;;27.00;63.50;;;;;;5029824;28;20130;-55
2022/08/09 13:33:57;;;;;;;11.05;1.83;;;27.10;62.10;;;;;;5032811;28;20053;-54
2022/08/09 13:36:24;;;;;;;3.92;1.40;;;27.20;62.80;;;;;;5048678;28;20088;-55
2022/08/09 13:39:09;;;;;;;5.05;1.63;;;27.10;62.30;;;;;;5043101;28;20052;-57